Alberton, Montana
Current Conditions -  °F | °C
As of 3:53 PM on Thursday 27 Nov 2014 (Local Time) from KMSO Reporting Station
Overcast Overcast  
Wind Chill: 10°   Ceiling: 9000
Heat Index: 10°   Visibility: 10mi
Dew Point:   Wind: 12mph
Humidity: 66%   Direction: 330°NNW
Pressure: 29.9"   Gusts: NA
Location:  47°N, 114.47°W
Report Text: KMSO 272253Z AUTO 33010KT 10SM FEW040 SCT060 OVC090 10/04 A2990 RMK AO2 RAB22E33 SLP140 P0000 T01000039 TSNO
Loading
Personal Weather Stations






























Interactive Weather Map New forecast layout! Learn more

10-Day Weather Forecast

Advertisements
Track Severe Weather on mobile